sensor_id;sensor_type;location;lat;lon;timestamp;P1;durP1;ratioP1;P2;durP2;ratioP2
60880;SDS011;46729;43.010;24.320;2022-09-25T00:01:59;8.05;;;5.40;;
60880;SDS011;46729;43.010;24.320;2022-09-25T00:04:26;8.73;;;4.43;;
60880;SDS011;46729;43.010;24.320;2022-09-25T00:06:54;7.95;;;4.57;;
60880;SDS011;46729;43.010;24.320;2022-09-25T00:09:22;9.98;;;5.50;;
60880;SDS011;46729;43.010;24.320;2022-09-25T00:11:49;12.88;;;5.32;;
60880;SDS011;46729;43.010;24.320;2022-09-25T00:14:16;10.55;;;5.57;;
60880;SDS011;46729;43.010;24.320;2022-09-25T00:16:43;9.85;;;5.43;;
60880;SDS011;46729;43.010;24.320;2022-09-25T00:19:11;10.10;;;5.88;;
60880;SDS011;46729;43.010;24.320;2022-09-25T00:22:04;13.88;;;5.40;;
60880;SDS011;46729;43.010;24.320;2022-09-25T00:24:32;16.25;;;7.60;;
60880;SDS011;46729;43.010;24.320;2022-09-25T00:26:59;27.13;;;11.40;;
60880;SDS011;46729;43.010;24.320;2022-09-25T00:29:26;17.13;;;7.55;;
60880;SDS011;46729;43.010;24.320;2022-09-25T00:31:56;11.30;;;6.03;;
60880;SDS011;46729;43.010;24.320;2022-09-25T00:34:23;14.40;;;7.57;;
60880;SDS011;46729;43.010;24.320;2022-09-25T00:36:52;7.90;;;4.68;;
60880;SDS011;46729;43.010;24.320;2022-09-25T00:39:18;11.02;;;4.13;;
60880;SDS011;46729;43.010;24.320;2022-09-25T00:41:46;8.75;;;4.15;;
60880;SDS011;46729;43.010;24.320;2022-09-25T00:47:19;7.88;;;4.50;;
60880;SDS011;46729;43.010;24.320;2022-09-25T00:49:53;10.57;;;5.28;;
60880;SDS011;46729;43.010;24.320;2022-09-25T00:52:26;9.95;;;4.97;;
60880;SDS011;46729;43.010;24.320;2022-09-25T00:54:55;6.68;;;3.88;;
60880;SDS011;46729;43.010;24.320;2022-09-25T00:57:28;5.75;;;4.15;;
60880;SDS011;46729;43.010;24.320;2022-09-25T01:00:00;8.52;;;5.28;;
60880;SDS011;46729;43.010;24.320;2022-09-25T01:02:33;10.63;;;4.60;;
60880;SDS011;46729;43.010;24.320;2022-09-25T01:05:07;8.98;;;5.15;;
60880;SDS011;46729;43.010;24.320;2022-09-25T01:07:37;8.15;;;4.47;;
60880;SDS011;46729;43.010;24.320;2022-09-25T01:10:11;6.30;;;4.03;;
60880;SDS011;46729;43.010;24.320;2022-09-25T01:12:40;7.97;;;4.28;;
60880;SDS011;46729;43.010;24.320;2022-09-25T01:15:09;9.02;;;3.88;;
60880;SDS011;46729;43.010;24.320;2022-09-25T01:38:24;6.20;;;4.00;;
60880;SDS011;46729;43.010;24.320;2022-09-25T01:44:23;5.32;;;4.20;;
60880;SDS011;46729;43.010;24.320;2022-09-25T01:47:05;6.13;;;3.17;;
60880;SDS011;46729;43.010;24.320;2022-09-25T01:50:02;4.63;;;3.65;;
60880;SDS011;46729;43.010;24.320;2022-09-25T01:52:39;7.00;;;3.65;;
60880;SDS011;46729;43.010;24.320;2022-09-25T01:55:14;4.65;;;3.47;;
60880;SDS011;46729;43.010;24.320;2022-09-25T01:58:29;4.22;;;3.35;;
60880;SDS011;46729;43.010;24.320;2022-09-25T02:01:07;9.50;;;5.63;;
60880;SDS011;46729;43.010;24.320;2022-09-25T02:04:07;7.22;;;4.93;;
60880;SDS011;46729;43.010;24.320;2022-09-25T02:06:56;8.00;;;4.53;;
60880;SDS011;46729;43.010;24.320;2022-09-25T02:09:41;11.25;;;4.45;;
60880;SDS011;46729;43.010;24.320;2022-09-25T02:12:36;5.35;;;3.60;;
60880;SDS011;46729;43.010;24.320;2022-09-25T02:18:03;4.00;;;3.13;;
60880;SDS011;46729;43.010;24.320;2022-09-25T02:21:03;7.47;;;4.28;;
60880;SDS011;46729;43.010;24.320;2022-09-25T02:26:41;6.03;;;4.00;;
60880;SDS011;46729;43.010;24.320;2022-09-25T02:29:09;7.88;;;4.60;;
60880;SDS011;46729;43.010;24.320;2022-09-25T02:31:37;6.22;;;4.28;;
60880;SDS011;46729;43.010;24.320;2022-09-25T02:34:10;6.95;;;4.38;;
60880;SDS011;46729;43.010;24.320;2022-09-25T02:36:38;7.03;;;4.68;;
60880;SDS011;46729;43.010;24.320;2022-09-25T02:39:04;9.02;;;4.80;;
60880;SDS011;46729;43.010;24.320;2022-09-25T02:44:46;14.23;;;3.78;;
60880;SDS011;46729;43.010;24.320;2022-09-25T03:00:08;10.07;;;4.53;;
60880;SDS011;46729;43.010;24.320;2022-09-25T03:02:36;10.73;;;5.03;;
60880;SDS011;46729;43.010;24.320;2022-09-25T03:05:04;19.85;;;8.43;;
60880;SDS011;46729;43.010;24.320;2022-09-25T03:07:31;61.53;;;23.15;;
60880;SDS011;46729;43.010;24.320;2022-09-25T03:10:19;30.10;;;12.40;;
60880;SDS011;46729;43.010;24.320;2022-09-25T03:12:45;72.05;;;31.52;;
60880;SDS011;46729;43.010;24.320;2022-09-25T03:15:11;35.55;;;16.83;;
60880;SDS011;46729;43.010;24.320;2022-09-25T03:17:38;12.30;;;6.22;;
60880;SDS011;46729;43.010;24.320;2022-09-25T03:20:06;16.42;;;6.93;;
60880;SDS011;46729;43.010;24.320;2022-09-25T03:22:35;7.60;;;4.50;;
60880;SDS011;46729;43.010;24.320;2022-09-25T03:25:03;8.15;;;3.88;;
60880;SDS011;46729;43.010;24.320;2022-09-25T03:27:31;65.18;;;21.40;;
60880;SDS011;46729;43.010;24.320;2022-09-25T03:29:56;37.22;;;16.27;;
60880;SDS011;46729;43.010;24.320;2022-09-25T03:32:23;14.77;;;6.78;;
60880;SDS011;46729;43.010;24.320;2022-09-25T03:34:50;10.27;;;5.47;;
60880;SDS011;46729;43.010;24.320;2022-09-25T03:37:17;5.72;;;4.38;;
60880;SDS011;46729;43.010;24.320;2022-09-25T03:39:44;8.05;;;3.88;;
60880;SDS011;46729;43.010;24.320;2022-09-25T03:42:11;4.90;;;3.85;;
60880;SDS011;46729;43.010;24.320;2022-09-25T03:44:39;9.57;;;4.00;;
60880;SDS011;46729;43.010;24.320;2022-09-25T03:47:07;12.43;;;3.50;;
60880;SDS011;46729;43.010;24.320;2022-09-25T03:49:32;6.28;;;3.22;;
60880;SDS011;46729;43.010;24.320;2022-09-25T03:51:59;11.07;;;3.53;;
60880;SDS011;46729;43.010;24.320;2022-09-25T03:54:28;5.78;;;3.50;;
60880;SDS011;46729;43.010;24.320;2022-09-25T03:56:55;6.95;;;3.50;;
60880;SDS011;46729;43.010;24.320;2022-09-25T03:59:22;4.43;;;3.50;;
60880;SDS011;46729;43.010;24.320;2022-09-25T04:01:50;19.58;;;7.88;;
60880;SDS011;46729;43.010;24.320;2022-09-25T04:04:18;12.77;;;7.80;;
60880;SDS011;46729;43.010;24.320;2022-09-25T04:06:46;8.70;;;4.45;;
60880;SDS011;46729;43.010;24.320;2022-09-25T04:09:13;11.85;;;5.90;;
60880;SDS011;46729;43.010;24.320;2022-09-25T04:11:41;10.15;;;4.57;;
60880;SDS011;46729;43.010;24.320;2022-09-25T04:14:10;5.60;;;3.45;;
60880;SDS011;46729;43.010;24.320;2022-09-25T04:16:38;6.93;;;3.38;;
60880;SDS011;46729;43.010;24.320;2022-09-25T04:19:04;7.00;;;4.50;;
60880;SDS011;46729;43.010;24.320;2022-09-25T04:21:31;8.57;;;5.18;;
60880;SDS011;46729;43.010;24.320;2022-09-25T04:23:58;15.98;;;7.00;;
60880;SDS011;46729;43.010;24.320;2022-09-25T04:26:41;73.97;;;29.95;;
60880;SDS011;46729;43.010;24.320;2022-09-25T04:29:08;24.33;;;11.35;;
60880;SDS011;46729;43.010;24.320;2022-09-25T04:31:35;41.00;;;19.30;;
60880;SDS011;46729;43.010;24.320;2022-09-25T04:34:02;28.58;;;13.98;;
60880;SDS011;46729;43.010;24.320;2022-09-25T04:36:30;34.17;;;16.52;;
60880;SDS011;46729;43.010;24.320;2022-09-25T04:38:56;19.23;;;8.68;;
60880;SDS011;46729;43.010;24.320;2022-09-25T04:41:25;20.33;;;9.38;;
60880;SDS011;46729;43.010;24.320;2022-09-25T04:43:52;19.13;;;8.32;;
60880;SDS011;46729;43.010;24.320;2022-09-25T04:46:18;12.80;;;8.77;;
60880;SDS011;46729;43.010;24.320;2022-09-25T04:48:44;6.72;;;4.45;;
60880;SDS011;46729;43.010;24.320;2022-09-25T04:51:11;5.38;;;3.75;;
60880;SDS011;46729;43.010;24.320;2022-09-25T04:53:38;5.10;;;3.70;;
60880;SDS011;46729;43.010;24.320;2022-09-25T04:56:06;4.90;;;3.92;;
60880;SDS011;46729;43.010;24.320;2022-09-25T04:58:37;17.48;;;9.23;;
60880;SDS011;46729;43.010;24.320;2022-09-25T05:01:05;9.30;;;6.03;;
60880;SDS011;46729;43.010;24.320;2022-09-25T05:03:34;9.10;;;3.70;;
60880;SDS011;46729;43.010;24.320;2022-09-25T05:06:02;5.25;;;3.67;;
60880;SDS011;46729;43.010;24.320;2022-09-25T05:08:29;8.32;;;3.58;;
60880;SDS011;46729;43.010;24.320;2022-09-25T05:10:56;9.55;;;3.92;;
60880;SDS011;46729;43.010;24.320;2022-09-25T05:13:24;7.07;;;4.63;;
60880;SDS011;46729;43.010;24.320;2022-09-25T05:15:54;6.53;;;3.70;;
60880;SDS011;46729;43.010;24.320;2022-09-25T05:18:21;6.45;;;3.63;;
60880;SDS011;46729;43.010;24.320;2022-09-25T05:20:48;6.88;;;4.07;;
60880;SDS011;46729;43.010;24.320;2022-09-25T05:23:15;8.05;;;3.83;;
60880;SDS011;46729;43.010;24.320;2022-09-25T05:25:42;5.60;;;3.10;;
60880;SDS011;46729;43.010;24.320;2022-09-25T05:28:09;4.80;;;3.85;;
60880;SDS011;46729;43.010;24.320;2022-09-25T05:30:37;6.38;;;3.90;;
60880;SDS011;46729;43.010;24.320;2022-09-25T05:33:04;5.57;;;3.55;;
60880;SDS011;46729;43.010;24.320;2022-09-25T05:35:31;4.57;;;3.72;;
60880;SDS011;46729;43.010;24.320;2022-09-25T05:37:59;5.65;;;4.43;;
60880;SDS011;46729;43.010;24.320;2022-09-25T05:40:25;5.05;;;3.05;;
60880;SDS011;46729;43.010;24.320;2022-09-25T05:42:53;3.65;;;2.92;;
60880;SDS011;46729;43.010;24.320;2022-09-25T05:45:23;30.33;;;17.25;;
60880;SDS011;46729;43.010;24.320;2022-09-25T05:48:11;23.20;;;14.50;;
60880;SDS011;46729;43.010;24.320;2022-09-25T05:50:37;10.27;;;7.28;;
60880;SDS011;46729;43.010;24.320;2022-09-25T05:53:04;12.90;;;8.70;;
60880;SDS011;46729;43.010;24.320;2022-09-25T05:55:31;15.88;;;7.50;;
60880;SDS011;46729;43.010;24.320;2022-09-25T05:58:01;8.45;;;5.82;;
60880;SDS011;46729;43.010;24.320;2022-09-25T06:00:30;6.82;;;4.60;;
60880;SDS011;46729;43.010;24.320;2022-09-25T06:02:59;4.05;;;3.08;;
60880;SDS011;46729;43.010;24.320;2022-09-25T06:05:26;3.83;;;2.55;;
60880;SDS011;46729;43.010;24.320;2022-09-25T06:07:53;10.85;;;2.97;;
60880;SDS011;46729;43.010;24.320;2022-09-25T06:10:24;4.18;;;2.53;;
60880;SDS011;46729;43.010;24.320;2022-09-25T06:12:56;4.97;;;2.95;;
60880;SDS011;46729;43.010;24.320;2022-09-25T06:15:27;4.50;;;2.63;;
60880;SDS011;46729;43.010;24.320;2022-09-25T06:17:58;3.88;;;2.65;;
60880;SDS011;46729;43.010;24.320;2022-09-25T06:20:24;9.32;;;3.30;;
60880;SDS011;46729;43.010;24.320;2022-09-25T06:22:55;3.78;;;2.60;;
60880;SDS011;46729;43.010;24.320;2022-09-25T06:25:25;6.93;;;3.28;;
60880;SDS011;46729;43.010;24.320;2022-09-25T06:27:58;5.65;;;3.38;;
60880;SDS011;46729;43.010;24.320;2022-09-25T06:30:28;3.97;;;3.05;;
60880;SDS011;46729;43.010;24.320;2022-09-25T06:33:06;7.93;;;3.25;;
60880;SDS011;46729;43.010;24.320;2022-09-25T06:35:46;6.65;;;3.08;;
60880;SDS011;46729;43.010;24.320;2022-09-25T06:38:14;10.70;;;3.05;;
60880;SDS011;46729;43.010;24.320;2022-09-25T06:40:42;5.22;;;3.45;;
60880;SDS011;46729;43.010;24.320;2022-09-25T06:43:09;6.25;;;3.30;;
60880;SDS011;46729;43.010;24.320;2022-09-25T06:45:37;6.47;;;3.60;;
60880;SDS011;46729;43.010;24.320;2022-09-25T06:48:08;3.80;;;2.78;;
60880;SDS011;46729;43.010;24.320;2022-09-25T06:50:53;5.78;;;3.40;;
60880;SDS011;46729;43.010;24.320;2022-09-25T06:53:24;8.18;;;3.88;;
60880;SDS011;46729;43.010;24.320;2022-09-25T06:55:51;11.68;;;4.80;;
60880;SDS011;46729;43.010;24.320;2022-09-25T06:58:21;13.50;;;4.72;;
60880;SDS011;46729;43.010;24.320;2022-09-25T07:00:50;13.68;;;4.65;;
60880;SDS011;46729;43.010;24.320;2022-09-25T07:03:22;7.10;;;4.28;;
60880;SDS011;46729;43.010;24.320;2022-09-25T07:06:07;5.00;;;3.28;;
60880;SDS011;46729;43.010;24.320;2022-09-25T07:08:38;6.70;;;3.33;;
60880;SDS011;46729;43.010;24.320;2022-09-25T07:11:10;6.45;;;3.20;;
60880;SDS011;46729;43.010;24.320;2022-09-25T07:13:39;4.47;;;2.60;;
60880;SDS011;46729;43.010;24.320;2022-09-25T07:16:12;7.57;;;3.13;;
60880;SDS011;46729;43.010;24.320;2022-09-25T07:18:42;13.85;;;3.35;;
60880;SDS011;46729;43.010;24.320;2022-09-25T07:21:20;7.30;;;3.00;;
60880;SDS011;46729;43.010;24.320;2022-09-25T07:23:50;3.83;;;2.75;;
60880;SDS011;46729;43.010;24.320;2022-09-25T07:26:23;4.00;;;2.70;;
60880;SDS011;46729;43.010;24.320;2022-09-25T07:28:57;5.05;;;3.20;;
60880;SDS011;46729;43.010;24.320;2022-09-25T07:31:26;4.25;;;2.53;;
60880;SDS011;46729;43.010;24.320;2022-09-25T07:33:55;6.25;;;2.45;;
60880;SDS011;46729;43.010;24.320;2022-09-25T07:36:25;5.68;;;2.90;;
60880;SDS011;46729;43.010;24.320;2022-09-25T07:38:52;6.25;;;2.80;;
60880;SDS011;46729;43.010;24.320;2022-09-25T07:41:20;4.30;;;2.60;;
60880;SDS011;46729;43.010;24.320;2022-09-25T07:43:54;8.30;;;2.53;;
60880;SDS011;46729;43.010;24.320;2022-09-25T07:46:23;3.22;;;2.13;;
60880;SDS011;46729;43.010;24.320;2022-09-25T07:48:51;3.63;;;2.72;;
60880;SDS011;46729;43.010;24.320;2022-09-25T07:51:18;7.45;;;3.63;;
60880;SDS011;46729;43.010;24.320;2022-09-25T07:53:47;6.78;;;3.30;;
60880;SDS011;46729;43.010;24.320;2022-09-25T07:56:14;5.80;;;3.03;;
60880;SDS011;46729;43.010;24.320;2022-09-25T07:58:42;3.75;;;2.75;;
60880;SDS011;46729;43.010;24.320;2022-09-25T08:01:12;5.25;;;3.17;;
60880;SDS011;46729;43.010;24.320;2022-09-25T08:03:39;6.88;;;2.67;;
60880;SDS011;46729;43.010;24.320;2022-09-25T08:06:07;6.18;;;3.22;;
60880;SDS011;46729;43.010;24.320;2022-09-25T08:08:38;4.18;;;2.55;;
60880;SDS011;46729;43.010;24.320;2022-09-25T08:11:15;4.95;;;2.53;;
60880;SDS011;46729;43.010;24.320;2022-09-25T08:13:43;5.20;;;2.20;;
60880;SDS011;46729;43.010;24.320;2022-09-25T08:16:15;7.47;;;1.92;;
60880;SDS011;46729;43.010;24.320;2022-09-25T08:18:44;3.28;;;2.47;;
60880;SDS011;46729;43.010;24.320;2022-09-25T08:21:13;4.25;;;1.90;;
60880;SDS011;46729;43.010;24.320;2022-09-25T08:23:50;4.82;;;2.25;;
60880;SDS011;46729;43.010;24.320;2022-09-25T08:26:20;3.95;;;2.17;;
60880;SDS011;46729;43.010;24.320;2022-09-25T08:28:49;2.70;;;1.85;;
60880;SDS011;46729;43.010;24.320;2022-09-25T08:31:17;3.58;;;2.00;;
60880;SDS011;46729;43.010;24.320;2022-09-25T08:33:44;2.80;;;1.77;;
60880;SDS011;46729;43.010;24.320;2022-09-25T08:36:12;14.52;;;7.85;;
60880;SDS011;46729;43.010;24.320;2022-09-25T08:38:38;7.00;;;3.88;;
60880;SDS011;46729;43.010;24.320;2022-09-25T08:41:05;6.13;;;2.92;;
60880;SDS011;46729;43.010;24.320;2022-09-25T08:43:42;4.68;;;2.15;;
60880;SDS011;46729;43.010;24.320;2022-09-25T08:46:18;14.98;;;9.57;;
60880;SDS011;46729;43.010;24.320;2022-09-25T08:49:08;6.63;;;4.80;;
60880;SDS011;46729;43.010;24.320;2022-09-25T08:51:48;4.10;;;3.42;;
60880;SDS011;46729;43.010;24.320;2022-09-25T08:54:24;2.38;;;1.88;;
60880;SDS011;46729;43.010;24.320;2022-09-25T08:57:02;5.40;;;1.90;;
60880;SDS011;46729;43.010;24.320;2022-09-25T08:59:47;3.83;;;1.70;;
60880;SDS011;46729;43.010;24.320;2022-09-25T09:02:32;4.20;;;1.90;;
60880;SDS011;46729;43.010;24.320;2022-09-25T09:05:08;5.53;;;2.05;;
60880;SDS011;46729;43.010;24.320;2022-09-25T09:08:19;2.53;;;1.90;;
60880;SDS011;46729;43.010;24.320;2022-09-25T09:10:55;3.78;;;1.98;;
60880;SDS011;46729;43.010;24.320;2022-09-25T09:13:46;2.47;;;1.50;;
60880;SDS011;46729;43.010;24.320;2022-09-25T09:18:48;4.82;;;2.22;;
60880;SDS011;46729;43.010;24.320;2022-09-25T09:30:19;4.97;;;2.08;;
60880;SDS011;46729;43.010;24.320;2022-09-25T09:42:06;3.90;;;1.88;;
60880;SDS011;46729;43.010;24.320;2022-09-25T09:57:47;6.88;;;1.70;;
60880;SDS011;46729;43.010;24.320;2022-09-25T10:00:29;6.00;;;2.25;;
60880;SDS011;46729;43.010;24.320;2022-09-25T10:03:32;3.03;;;1.63;;
60880;SDS011;46729;43.010;24.320;2022-09-25T10:06:00;2.97;;;1.90;;
60880;SDS011;46729;43.010;24.320;2022-09-25T10:08:39;6.57;;;1.77;;
60880;SDS011;46729;43.010;24.320;2022-09-25T10:11:13;3.92;;;1.70;;
60880;SDS011;46729;43.010;24.320;2022-09-25T10:13:41;3.47;;;1.77;;
60880;SDS011;46729;43.010;24.320;2022-09-25T10:16:12;1.70;;;1.30;;
60880;SDS011;46729;43.010;24.320;2022-09-25T10:21:58;2.13;;;1.70;;
60880;SDS011;46729;43.010;24.320;2022-09-25T10:24:44;2.38;;;1.63;;
60880;SDS011;46729;43.010;24.320;2022-09-25T10:27:38;2.50;;;1.55;;
60880;SDS011;46729;43.010;24.320;2022-09-25T10:30:17;3.90;;;1.80;;
60880;SDS011;46729;43.010;24.320;2022-09-25T10:35:43;2.30;;;1.50;;
60880;SDS011;46729;43.010;24.320;2022-09-25T10:38:33;4.47;;;1.75;;
60880;SDS011;46729;43.010;24.320;2022-09-25T10:41:19;3.92;;;1.67;;
60880;SDS011;46729;43.010;24.320;2022-09-25T10:43:55;3.97;;;1.42;;
60880;SDS011;46729;43.010;24.320;2022-09-25T10:46:43;5.28;;;1.50;;
60880;SDS011;46729;43.010;24.320;2022-09-25T10:49:28;2.42;;;1.80;;
60880;SDS011;46729;43.010;24.320;2022-09-25T10:52:14;2.03;;;1.50;;
60880;SDS011;46729;43.010;24.320;2022-09-25T10:54:45;2.22;;;1.60;;
60880;SDS011;46729;43.010;24.320;2022-09-25T10:57:34;3.58;;;1.70;;
60880;SDS011;46729;43.010;24.320;2022-09-25T11:00:25;4.38;;;1.70;;
60880;SDS011;46729;43.010;24.320;2022-09-25T11:02:53;2.20;;;1.70;;
60880;SDS011;46729;43.010;24.320;2022-09-25T11:05:33;2.13;;;1.70;;
60880;SDS011;46729;43.010;24.320;2022-09-25T11:08:04;2.42;;;1.40;;
60880;SDS011;46729;43.010;24.320;2022-09-25T11:10:45;5.78;;;1.90;;
60880;SDS011;46729;43.010;24.320;2022-09-25T11:13:27;2.30;;;1.65;;
60880;SDS011;46729;43.010;24.320;2022-09-25T11:17:08;6.80;;;1.75;;
60880;SDS011;46729;43.010;24.320;2022-09-25T11:19:25;3.75;;;1.30;;
60880;SDS011;46729;43.010;24.320;2022-09-25T11:21:58;1.95;;;1.50;;
60880;SDS011;46729;43.010;24.320;2022-09-25T11:30:21;4.37;;;1.63;;
60880;SDS011;46729;43.010;24.320;2022-09-25T11:32:55;4.18;;;1.55;;
60880;SDS011;46729;43.010;24.320;2022-09-25T11:38:54;3.65;;;1.30;;
60880;SDS011;46729;43.010;24.320;2022-09-25T11:48:03;5.50;;;1.60;;
60880;SDS011;46729;43.010;24.320;2022-09-25T11:56:51;2.13;;;1.45;;
60880;SDS011;46729;43.010;24.320;2022-09-25T12:08:41;2.33;;;1.73;;
60880;SDS011;46729;43.010;24.320;2022-09-25T12:11:56;2.03;;;1.48;;
60880;SDS011;46729;43.010;24.320;2022-09-25T12:15:17;6.88;;;1.63;;
60880;SDS011;46729;43.010;24.320;2022-09-25T12:21:32;3.22;;;1.50;;
60880;SDS011;46729;43.010;24.320;2022-09-25T12:30:21;3.00;;;1.70;;
60880;SDS011;46729;43.010;24.320;2022-09-25T12:35:50;2.40;;;1.80;;
60880;SDS011;46729;43.010;24.320;2022-09-25T12:38:35;2.13;;;1.17;;
60880;SDS011;46729;43.010;24.320;2022-09-25T12:41:50;2.55;;;1.83;;
60880;SDS011;46729;43.010;24.320;2022-09-25T12:47:37;4.40;;;1.60;;
60880;SDS011;46729;43.010;24.320;2022-09-25T12:50:36;2.35;;;1.60;;
60880;SDS011;46729;43.010;24.320;2022-09-25T12:53:29;4.05;;;1.80;;
60880;SDS011;46729;43.010;24.320;2022-09-25T12:56:21;1.85;;;1.08;;
60880;SDS011;46729;43.010;24.320;2022-09-25T13:02:33;4.25;;;1.50;;
60880;SDS011;46729;43.010;24.320;2022-09-25T13:08:24;2.42;;;1.30;;
60880;SDS011;46729;43.010;24.320;2022-09-25T13:11:07;1.67;;;1.48;;
60880;SDS011;46729;43.010;24.320;2022-09-25T13:13:55;1.98;;;1.60;;
60880;SDS011;46729;43.010;24.320;2022-09-25T13:16:24;2.17;;;1.40;;
60880;SDS011;46729;43.010;24.320;2022-09-25T13:24:55;2.30;;;1.50;;
60880;SDS011;46729;43.010;24.320;2022-09-25T13:27:29;2.10;;;1.40;;
60880;SDS011;46729;43.010;24.320;2022-09-25T13:30:24;1.98;;;1.70;;
60880;SDS011;46729;43.010;24.320;2022-09-25T13:32:56;3.33;;;1.60;;
60880;SDS011;46729;43.010;24.320;2022-09-25T13:35:27;2.97;;;1.50;;
60880;SDS011;46729;43.010;24.320;2022-09-25T13:38:14;4.35;;;1.88;;
60880;SDS011;46729;43.010;24.320;2022-09-25T13:41:10;2.55;;;1.75;;
60880;SDS011;46729;43.010;24.320;2022-09-25T13:43:41;1.35;;;1.25;;
60880;SDS011;46729;43.010;24.320;2022-09-25T13:46:21;2.53;;;1.42;;
60880;SDS011;46729;43.010;24.320;2022-09-25T13:48:49;4.13;;;1.52;;
60880;SDS011;46729;43.010;24.320;2022-09-25T13:53:57;2.53;;;1.60;;
60880;SDS011;46729;43.010;24.320;2022-09-25T13:56:54;2.55;;;1.65;;
60880;SDS011;46729;43.010;24.320;2022-09-25T13:59:33;4.22;;;1.55;;
60880;SDS011;46729;43.010;24.320;2022-09-25T14:05:26;2.92;;;1.60;;
60880;SDS011;46729;43.010;24.320;2022-09-25T14:08:10;3.60;;;1.63;;
60880;SDS011;46729;43.010;24.320;2022-09-25T14:10:49;2.95;;;1.67;;
60880;SDS011;46729;43.010;24.320;2022-09-25T14:13:20;1.65;;;1.40;;
60880;SDS011;46729;43.010;24.320;2022-09-25T14:15:53;4.70;;;1.70;;
60880;SDS011;46729;43.010;24.320;2022-09-25T14:18:30;3.55;;;1.50;;
60880;SDS011;46729;43.010;24.320;2022-09-25T14:21:07;4.38;;;1.48;;
60880;SDS011;46729;43.010;24.320;2022-09-25T14:23:48;3.03;;;1.40;;
60880;SDS011;46729;43.010;24.320;2022-09-25T14:26:29;1.70;;;1.20;;
60880;SDS011;46729;43.010;24.320;2022-09-25T14:28:55;1.70;;;1.48;;
60880;SDS011;46729;43.010;24.320;2022-09-25T14:34:34;2.87;;;1.30;;
60880;SDS011;46729;43.010;24.320;2022-09-25T14:44:14;5.15;;;2.00;;
60880;SDS011;46729;43.010;24.320;2022-09-25T14:46:56;4.53;;;2.00;;
60880;SDS011;46729;43.010;24.320;2022-09-25T14:49:30;3.25;;;1.77;;
60880;SDS011;46729;43.010;24.320;2022-09-25T14:52:08;3.15;;;1.90;;
60880;SDS011;46729;43.010;24.320;2022-09-25T14:54:42;3.90;;;1.63;;
60880;SDS011;46729;43.010;24.320;2022-09-25T14:57:26;4.22;;;1.92;;
60880;SDS011;46729;43.010;24.320;2022-09-25T14:59:58;6.53;;;1.85;;
60880;SDS011;46729;43.010;24.320;2022-09-25T15:02:39;4.72;;;1.80;;
60880;SDS011;46729;43.010;24.320;2022-09-25T15:07:57;3.63;;;1.60;;
60880;SDS011;46729;43.010;24.320;2022-09-25T15:10:31;8.85;;;1.90;;
60880;SDS011;46729;43.010;24.320;2022-09-25T15:13:12;1.98;;;1.60;;
60880;SDS011;46729;43.010;24.320;2022-09-25T15:15:44;2.10;;;1.55;;
60880;SDS011;46729;43.010;24.320;2022-09-25T15:18:40;2.80;;;1.80;;
60880;SDS011;46729;43.010;24.320;2022-09-25T15:21:31;3.95;;;1.40;;
60880;SDS011;46729;43.010;24.320;2022-09-25T15:24:04;3.85;;;1.50;;
60880;SDS011;46729;43.010;24.320;2022-09-25T15:26:38;1.88;;;1.50;;
60880;SDS011;46729;43.010;24.320;2022-09-25T15:29:20;4.07;;;1.60;;
60880;SDS011;46729;43.010;24.320;2022-09-25T15:31:50;3.30;;;1.60;;
60880;SDS011;46729;43.010;24.320;2022-09-25T15:34:21;3.58;;;2.03;;
60880;SDS011;46729;43.010;24.320;2022-09-25T15:36:50;5.47;;;1.80;;
60880;SDS011;46729;43.010;24.320;2022-09-25T15:39:22;3.33;;;2.20;;
60880;SDS011;46729;43.010;24.320;2022-09-25T15:41:50;5.95;;;1.60;;
60880;SDS011;46729;43.010;24.320;2022-09-25T15:44:20;4.78;;;1.67;;
60880;SDS011;46729;43.010;24.320;2022-09-25T15:46:52;2.45;;;1.70;;
60880;SDS011;46729;43.010;24.320;2022-09-25T15:49:42;2.83;;;1.65;;
60880;SDS011;46729;43.010;24.320;2022-09-25T15:52:28;2.78;;;1.50;;
60880;SDS011;46729;43.010;24.320;2022-09-25T15:55:01;3.38;;;1.42;;
60880;SDS011;46729;43.010;24.320;2022-09-25T15:57:32;4.65;;;1.73;;
60880;SDS011;46729;43.010;24.320;2022-09-25T16:00:03;3.33;;;1.70;;
60880;SDS011;46729;43.010;24.320;2022-09-25T16:02:56;5.60;;;1.60;;
60880;SDS011;46729;43.010;24.320;2022-09-25T16:05:56;2.22;;;1.40;;
60880;SDS011;46729;43.010;24.320;2022-09-25T16:08:35;9.90;;;1.80;;
60880;SDS011;46729;43.010;24.320;2022-09-25T16:13:49;5.32;;;2.05;;
60880;SDS011;46729;43.010;24.320;2022-09-25T16:16:35;4.18;;;2.63;;
60880;SDS011;46729;43.010;24.320;2022-09-25T16:19:30;6.18;;;2.45;;
60880;SDS011;46729;43.010;24.320;2022-09-25T16:22:00;9.82;;;2.42;;
60880;SDS011;46729;43.010;24.320;2022-09-25T16:24:50;2.95;;;1.77;;
60880;SDS011;46729;43.010;24.320;2022-09-25T16:27:25;3.83;;;1.55;;
60880;SDS011;46729;43.010;24.320;2022-09-25T16:29:55;2.95;;;1.75;;
60880;SDS011;46729;43.010;24.320;2022-09-25T16:32:23;2.80;;;1.73;;
60880;SDS011;46729;43.010;24.320;2022-09-25T16:34:56;3.28;;;2.45;;
60880;SDS011;46729;43.010;24.320;2022-09-25T16:37:29;2.22;;;2.03;;
60880;SDS011;46729;43.010;24.320;2022-09-25T16:40:09;3.00;;;2.00;;
60880;SDS011;46729;43.010;24.320;2022-09-25T16:42:41;6.07;;;2.40;;
60880;SDS011;46729;43.010;24.320;2022-09-25T16:45:19;5.22;;;2.20;;
60880;SDS011;46729;43.010;24.320;2022-09-25T16:47:47;5.15;;;2.20;;
60880;SDS011;46729;43.010;24.320;2022-09-25T16:50:15;6.32;;;2.17;;
60880;SDS011;46729;43.010;24.320;2022-09-25T16:52:44;7.32;;;2.53;;
60880;SDS011;46729;43.010;24.320;2022-09-25T16:55:19;6.22;;;2.50;;
60880;SDS011;46729;43.010;24.320;2022-09-25T16:57:49;3.65;;;2.00;;
60880;SDS011;46729;43.010;24.320;2022-09-25T17:00:36;5.85;;;2.28;;
60880;SDS011;46729;43.010;24.320;2022-09-25T17:03:24;4.95;;;2.65;;
60880;SDS011;46729;43.010;24.320;2022-09-25T17:05:51;10.18;;;3.60;;
60880;SDS011;46729;43.010;24.320;2022-09-25T17:08:19;10.30;;;2.85;;
60880;SDS011;46729;43.010;24.320;2022-09-25T17:10:48;6.30;;;2.63;;
60880;SDS011;46729;43.010;24.320;2022-09-25T17:13:26;3.50;;;2.58;;
60880;SDS011;46729;43.010;24.320;2022-09-25T17:15:56;7.93;;;2.67;;
60880;SDS011;46729;43.010;24.320;2022-09-25T17:18:23;5.05;;;2.95;;
60880;SDS011;46729;43.010;24.320;2022-09-25T17:20:51;5.05;;;2.85;;
60880;SDS011;46729;43.010;24.320;2022-09-25T17:23:20;4.97;;;2.67;;
60880;SDS011;46729;43.010;24.320;2022-09-25T17:25:51;6.97;;;3.40;;
60880;SDS011;46729;43.010;24.320;2022-09-25T17:28:26;5.05;;;3.22;;
60880;SDS011;46729;43.010;24.320;2022-09-25T17:30:58;6.07;;;3.50;;
60880;SDS011;46729;43.010;24.320;2022-09-25T17:33:26;9.98;;;4.70;;
60880;SDS011;46729;43.010;24.320;2022-09-25T17:36:03;13.77;;;9.05;;
60880;SDS011;46729;43.010;24.320;2022-09-25T17:38:32;16.02;;;6.28;;
60880;SDS011;46729;43.010;24.320;2022-09-25T17:41:03;10.82;;;7.07;;
60880;SDS011;46729;43.010;24.320;2022-09-25T17:43:46;7.07;;;3.53;;
60880;SDS011;46729;43.010;24.320;2022-09-25T17:46:12;6.88;;;3.63;;
60880;SDS011;46729;43.010;24.320;2022-09-25T17:48:43;7.67;;;4.23;;
60880;SDS011;46729;43.010;24.320;2022-09-25T17:51:20;10.38;;;4.50;;
60880;SDS011;46729;43.010;24.320;2022-09-25T17:54:01;12.00;;;3.92;;
60880;SDS011;46729;43.010;24.320;2022-09-25T17:56:28;9.18;;;4.05;;
60880;SDS011;46729;43.010;24.320;2022-09-25T17:58:55;6.05;;;4.13;;
60880;SDS011;46729;43.010;24.320;2022-09-25T18:01:25;7.22;;;3.72;;
60880;SDS011;46729;43.010;24.320;2022-09-25T18:03:53;6.75;;;3.08;;